Ride Results

Maryvale (13-07-2013)
Ride distance: 80.0 km

Outcomes - Maryvale (13-07-2013)
Division No. of Entries Retired / DNE Completed Withdrawn Ineligible V/O Percentage Completed
HW 10 - 6 - - 4 60.00%
MW 20 - 18 1 - 1 90.00%
LW 18 - 15 1 - 2 83.33%
JN 17 - 13 3 - 1 76.47%
Totals 65 - 52 5 - 8 80.00%
Results - Maryvale (13-07-2013)
No. Rider Horse Place Time Leg Speeds Total
Km/Hr
H/R bpm
Heavyweight
3 Paul Fitzgerald Lanamere Dolce 1 (BC) 6:00:00 14.4, 12.3 13.33 30, 43, 41 (Avg:42)
10 Kathryn Priol Kalkadoon Lucifer 1 6:00:00 14.0, 12.6 13.33 33, 44, 52 (Avg:48)
32 Nicole Urquhart Issachar Zaheebu 3 6:14:00 13.3, 12.3 12.83 44, 40, 44 (Avg:42)
7 Sue Gurtner Cedarton Achak Abornazine 4 7:43:00 10.7, 9.9 10.37 34, 37, 56 (Avg:46)
24 Matthias Lochthofen Honey 5 8:09:00 11.6, 8.4 9.82 38, 46, 47 (Avg:46)
25 Rach Freudenstein Merlin 6 8:39:00 11.6, 7.6 9.25 30, 44, 42 (Avg:43)
48 Matthew Gadsby Annordean Balin Lame L2 0:00:00 13.1, 9.4 - 38, 44, 60 (Avg:52)
8 Allen Mackenzie Briallyn Kirra Bint Zanir Lame L2 0:00:00 13.1, 10.9 - 74, 47, 48 (Avg:47)
12 Bruce Moore Brookleigh Air Jordan Lame L2 0:00:00 10.8, 9.0 - 30, 37, 43 (Avg:40)
54 Mark Nimon Stratharlie Sheriff Lame L1 0:00:00 13.7 - 41, 48 (Avg:48)
Middleweight
39 Adam Garvin Manet Ibn Rashan 1 (BC) 4:16:00 18.1, 19.3 18.75 41, 43, 48 (Avg:45)
19 Donna Pearce Windhaven Hussein 2 5:07:00 15.8, 15.3 15.64 36, 50, 49 (Avg:49)
62 Ken Moir Cameo Helmzman 3 5:14:00 14.2, 16.5 15.29 35, 43, 43 (Avg:43)
2 Caroline Fitzgerald Lanamere Femmara 4 6:00:00 14.4, 12.3 13.33 35, 46, 47 (Avg:46)
60 Vicky Hazzard Lavendar Park Bacardi 4 6:00:00 14.4, 12.3 13.33 35, 45, 48 (Avg:46)
11 Rachel Goodwin Niora 6 6:14:00 13.1, 12.4 12.83 31, 43, 43 (Avg:43)
55 Kathy Drew Warrawee A Bandom 7 6:22:00 13.0, 12.1 12.57 37, 41, 44 (Avg:42)
16 Wendy Butler Oscar De La Hoya 8 6:41:00 13.1, 11.0 11.97 35, 42, 46 (Avg:44)
15 Stephen Gray Aloha Kabuki 8 6:41:00 13.1, 11.0 11.97 38, 47, 48 (Avg:47)
46 Jim Lillyman Zenith Park Shiloh 10 6:46:00 11.9, 11.7 11.82 32, 37, 53 (Avg:45)
33 Lisa Loranger Drizzle 11 6:50:00 12.7, 10.8 11.71 42, 43, 48 (Avg:45)
63 Gabriel Hyland Summervale Top Gear 12 6:57:00 11.8, 11.1 11.51 47, 42, 47 (Avg:44)
17 Leah Robertson Lilla 13 7:00:00 11.9, 10.9 11.43 40, 41, 50 (Avg:45)
53 Sarah Love Aqaba Pride Of Erin 14 7:37:00 10.4, 10.5 10.50 36, 44, 43 (Avg:43)
13 Helen Moore Summer Park Douglas Explorer 15 8:06:00 10.8, 9.0 9.88 38, 42, 44 (Avg:43)
28 Karen Lee Samsara Magic Eagle 16 8:08:00 10.7, 9.0 9.84 34, 38, 51 (Avg:44)
35 Warwick Toft Bremervale Celeste 17 8:15:00 9.5, 9.8 9.70 40, 46, 50 (Avg:48)
65 Emeline Lacour Larabi Sid Simba'ar 18 8:17:00 11.8, 8.1 9.66 40, 43, 45 (Avg:44)
40 Akhmed Pshunov Sir Ibn Roara Heart Rate L1 0:00:00 9.9 - 38, 75 (Avg:75)
66 Shi Saeed Bin Khalifa Pharazon D'Artanyoun Withdrawn P/R 0:00:00 - - 41
Lightweight
38 Judy Battams Polly 1 (BC) 4:19:00 18.3, 18.7 18.53 32, 48, 43 (Avg:45)
67 Natasha Willemse Cheraz Silver Pocket 1 4:19:00 18.3, 18.7 18.53 36, 43, 44 (Avg:43)
44 Sue Jones El Castano Mirada 3 5:04:00 16.2, 15.3 15.79 38, 55, 52 (Avg:53)
45 Ute Jordan Charaway Amici 3 5:04:00 16.2, 15.3 15.79 43, 46, 46 (Avg:46)
31 Racheal Townsend Chingford Blaze Away 5 5:06:00 17.9, 13.9 15.69 30, 35, 39 (Avg:37)
52 Amanda Phillips Kalkadoon Vienna 6 6:18:00 13.6, 11.8 12.70 30, 36, 42 (Avg:39)
14 Christine Christie Sateen 7 6:23:00 13.1, 11.9 12.53 36, 42, 47 (Avg:44)
6 Cindy Holden San Juan 8 6:41:00 13.1, 11.0 11.97 36, 42, 49 (Avg:45)
42 Kaylea Maher Grandwood Scrupulous 9 6:50:00 10.9, 12.6 11.71 38, 46, 52 (Avg:49)
64 Cathy Ferguson Die Kinder Summer 10 6:57:00 11.8, 11.1 11.51 47, 40, 41 (Avg:40)
57 Aurelie Cassin Gheerulla Aragon 11 7:28:00 10.6, 10.7 10.71 40, 35, 43 (Avg:39)
59 Leigh Ann Sample Brookleigh Milo 11 7:28:00 10.6, 10.7 10.71 44, 44, 49 (Avg:46)
27 Celeste Shields Mt Eerwah Bay Cavalier 13 7:32:00 11.5, 9.7 10.62 34, 43, 43 (Avg:43)
29 Di Kupsch Fortaleza Ascira 14 8:08:00 10.7, 9.0 9.84 34, 43, 47 (Avg:45)
36 Shaylee Nicholls Centre Bandette 15 8:15:00 9.5, 9.8 9.70 37, 40, 43 (Avg:41)
21 Kate Appleby Shuja Belthesar Lame L2 0:00:00 11.8, 10.2 - 27, 40, 38 (Avg:39)
56 Malin Olsson Gheerulla Quartz Lame L2 0:00:00 10.6, 10.7 - 48, 41, 43 (Avg:42)
1 Jan Tyrrell Willandra Wind Lancer Withdrawn L1 0:00:00 - - 35, 44 (Avg:44)
Junior
47 David Anderson Jnr Vandieman Princess Ellie 1 (BC) 4:17:00 17.9, 19.5 18.68 35, 39, 39 (Avg:39)
61 James Coop Shian 2 5:14:00 14.2, 16.5 15.29 32, 39, 43 (Avg:41)
43 Lainie Zischke The Big Dipper 3 6:14:00 13.1, 12.4 12.83 34, 42, 50 (Avg:46)
49 Sarah Huddleston Ra Silver Dancer 4 6:18:00 13.6, 11.8 12.70 34, 39, 42 (Avg:40)
23 Brooke Marshall Awarran Park Silver Countess 5 6:32:00 11.8, 12.6 12.24 53, 43, 45 (Avg:44)
50 Rilene Heydenreich Aphrodite Malakia 6 6:53:00 12.7, 10.6 11.62 35, 45, 49 (Avg:47)
18 Lizzy Cleland Luciana 7 7:00:00 11.9, 10.9 11.43 37, 47, 48 (Avg:47)
20 Isabella Teh Thalara 7 7:00:00 11.9, 10.9 11.43 38, 44, 48 (Avg:46)
58 Matty Sample Kidaman Ashquar 9 7:28:00 10.6, 10.7 10.71 40, 42, 51 (Avg:46)
26 Stirling Shields Indy 10 7:32:00 11.5, 9.7 10.62 38, 39, 41 (Avg:40)
4 Tahlia Franke Keisha 11 7:36:00 10.0, 11.0 10.53 30, 39, 41 (Avg:40)
5 Jess Kuhn Tigerlilly 11 7:36:00 10.0, 11.0 10.53 35, 45, 49 (Avg:47)
9 Ronan McKay Moomba Lodge Bayley 11 7:36:00 10.0, 11.0 10.53 36, 43, 48 (Avg:45)
22 Jessyca Dakin Bashan Lilly Lame L1 0:00:00 11.8 - 31, 39 (Avg:39)
30 Bridget McHugh Cooroora Carmen Withdrawn L1 0:00:00 - - 36, 44 (Avg:44)
37 Georgia Toft Bremervale Doc Holiday Withdrawn L1 0:00:00 - - 33, 39, 40 (Avg:39)
34 Madeline Toft CK Withdrawn L1 0:00:00 - - 42, 43 (Avg:43)